Time;durP1;ratioP1;P1;durP2;ratioP2;P2;SDS_P1;SDS_P2;PMS_P1;PMS_P2;Temp;Humidity;BMP_temperature;BMP_pressure;BME280_temperature;BME280_humidity;BME280_pressure;Samples;Min_cycle;Max_cycle;Signal;HPM_P1;HPM_P2
2022/09/20 00:00:19;;;;;;;2.77;2.24;;;;;;;13.98;60.57;100751.34;463004;114;922892;-76
2022/09/20 00:01:28;;;;;;;2.98;2.56;;;;;;;13.96;60.56;100758.95;463100;114;922492;-77
2022/09/20 00:02:31;;;;;;;3.80;2.49;;;;;;;13.93;60.57;100750.38;462511;114;922527;-78
2022/09/20 00:03:36;;;;;;;2.71;2.16;;;;;;;13.91;60.64;100752.50;463148;114;922502;-76
2022/09/20 00:04:39;;;;;;;2.69;2.40;;;;;;;13.89;60.68;100757.40;462899;114;922450;-76
2022/09/20 00:05:44;;;;;;;2.82;2.30;;;;;;;13.87;60.72;100756.78;463116;114;922750;-76
2022/09/20 00:06:48;;;;;;;2.41;2.21;;;;;;;13.87;60.75;100759.52;462931;114;923036;-78
2022/09/20 00:07:51;;;;;;;2.97;2.58;;;;;;;13.86;60.82;100753.20;463130;114;922793;-77
2022/09/20 00:08:54;;;;;;;3.00;2.19;;;;;;;13.86;60.79;100758.69;463177;114;922478;-78
2022/09/20 00:09:57;;;;;;;3.42;2.53;;;;;;;13.82;60.80;100752.00;463073;114;922590;-77
2022/09/20 00:11:02;;;;;;;5.19;2.70;;;;;;;13.82;60.80;100752.00;463080;114;930345;-76
2022/09/20 00:12:06;;;;;;;3.79;2.78;;;;;;;13.77;60.69;100747.22;462901;114;922891;-77
2022/09/20 00:13:12;;;;;;;3.03;2.58;;;;;;;13.75;60.76;100752.09;462986;114;923016;-76
2022/09/20 00:14:15;;;;;;;5.23;2.99;;;;;;;13.73;60.93;100754.20;462861;114;922592;-76
2022/09/20 00:15:18;;;;;;;5.39;2.77;;;;;;;13.72;61.05;100751.72;462956;114;923043;-77
2022/09/20 00:16:25;;;;;;;2.75;2.56;;;;;;;13.70;61.06;100759.33;463088;114;923020;-77
2022/09/20 00:17:28;;;;;;;5.38;2.86;;;;;;;13.70;61.23;100753.84;462847;114;922965;-77
2022/09/20 00:18:31;;;;;;;2.81;2.57;;;;;;;13.71;61.24;100755.53;463097;114;922569;-77
2022/09/20 00:19:34;;;;;;;4.86;2.70;;;;;;;13.70;61.33;100760.17;463015;114;922542;-78
2022/09/20 00:20:48;;;;;;;5.66;2.56;;;;;;;13.71;61.39;100752.78;463015;114;922507;-77
2022/09/20 00:21:51;;;;;;;3.72;2.74;;;;;;;13.72;61.47;100758.05;462857;114;922989;-77
2022/09/20 00:22:54;;;;;;;3.69;2.90;;;;;;;13.74;61.66;100763.27;462909;114;922589;-77
2022/09/20 00:23:58;;;;;;;3.32;2.67;;;;;;;13.75;61.70;100756.73;462965;114;922575;-77
2022/09/20 00:25:01;;;;;;;3.92;2.92;;;;;;;13.76;61.80;100753.77;462979;114;922638;-77
2022/09/20 00:26:04;;;;;;;2.51;2.31;;;;;;;13.77;61.67;100755.44;463023;114;922927;-76
2022/09/20 00:27:07;;;;;;;3.68;2.77;;;;;;;13.78;61.68;100761.77;462996;114;922585;-77
2022/09/20 00:28:11;;;;;;;3.71;2.79;;;;;;;13.78;61.64;100748.87;462994;114;923285;-77
2022/09/20 00:29:14;;;;;;;2.77;2.57;;;;;;;13.78;61.58;100754.34;462984;114;922519;-75
2022/09/20 00:30:17;;;;;;;3.08;2.69;;;;;;;13.76;61.57;100753.77;462942;114;922899;-77
2022/09/20 00:31:20;;;;;;;3.01;2.67;;;;;;;13.75;61.46;100752.09;466341;112;930349;-76
2022/09/20 00:32:23;;;;;;;3.24;2.84;;;;;;;13.73;61.57;100756.11;471263;112;922975;-77
2022/09/20 00:36:09;;;;;;;3.04;2.60;;;;;;;13.74;61.86;100755.89;471121;112;923055;-77
2022/09/20 00:37:12;;;;;;;2.79;2.54;;;;;;;13.75;61.91;100756.73;471287;112;922671;-77
2022/09/20 00:38:15;;;;;;;4.39;2.73;;;;;;;13.75;61.97;100762.20;471271;112;922612;-77
2022/09/20 00:39:18;;;;;;;4.09;3.17;;;;;;;13.74;62.00;100755.05;466336;112;922537;-77
2022/09/20 00:40:25;;;;;;;3.12;2.91;;;;;;;13.73;61.89;100758.85;465974;114;922732;-77
2022/09/20 00:41:30;;;;;;;5.02;3.08;;;;;;;13.69;61.84;100754.91;455312;116;930542;-76
2022/09/20 00:42:34;;;;;;;3.09;2.80;;;;;;;13.65;61.85;100749.06;455387;116;922599;-77
2022/09/20 00:43:43;;;;;;;3.69;2.90;;;;;;;13.63;61.88;100753.92;455565;116;922602;-77
2022/09/20 00:45:01;;;;;;;5.27;3.03;;;;;;;13.61;62.01;100752.50;455331;116;922548;-78
2022/09/20 00:46:07;;;;;;;3.16;2.83;;;;;;;13.59;62.12;100754.63;455330;116;922874;-78
2022/09/20 00:47:33;;;;;;;5.16;3.13;;;;;;;13.57;62.32;100754.84;454819;116;922877;-75
2022/09/20 00:48:36;;;;;;;5.76;3.33;;;;;;;13.57;62.37;100754.01;455344;116;922503;-76
2022/09/20 00:49:39;;;;;;;4.14;3.28;;;;;;;13.57;62.47;100751.27;455538;116;923032;-76
2022/09/20 00:50:57;;;;;;;3.91;3.06;;;;;;;13.58;62.58;100759.27;455585;116;922503;-76
2022/09/20 00:52:01;;;;;;;2.91;2.66;;;;;;;13.59;62.66;100754.63;454591;116;922559;-77
2022/09/20 00:53:32;;;;;;;3.53;3.23;;;;;;;13.61;62.70;100749.77;455474;116;922704;-77
2022/09/20 00:54:35;;;;;;;5.14;2.79;;;;;;;13.62;62.71;100751.41;455064;116;930540;-77
2022/09/20 00:55:42;;;;;;;3.80;3.36;;;;;;;13.62;62.67;100749.51;455447;116;930531;-77
2022/09/20 00:56:45;;;;;;;3.15;2.87;;;;;;;13.63;62.66;100747.61;455420;116;922454;-77
2022/09/20 00:57:49;;;;;;;3.02;2.83;;;;;;;13.62;62.64;100746.77;455561;116;922726;-77
2022/09/20 00:58:55;;;;;;;4.42;2.90;;;;;;;13.62;62.65;100744.03;455469;116;922844;-77
2022/09/20 00:59:58;;;;;;;4.07;3.31;;;;;;;13.61;62.65;100745.13;454775;116;922984;-77
2022/09/20 01:01:03;;;;;;;3.61;2.67;;;;;;;13.61;62.64;100747.86;455605;116;922441;-77
2022/09/20 01:02:16;;;;;;;3.90;3.34;;;;;;;13.62;62.75;100751.41;455402;116;922343;-78
2022/09/20 01:03:21;;;;;;;3.28;2.98;;;;;;;13.61;62.79;100747.86;455332;116;922424;-76
2022/09/20 01:04:27;;;;;;;3.22;2.72;;;;;;;13.64;62.78;100743.80;455446;116;922549;-77
2022/09/20 01:05:30;;;;;;;5.14;2.58;;;;;;;13.66;62.74;100748.00;455395;116;922905;-77
2022/09/20 01:06:34;;;;;;;3.61;2.84;;;;;;;13.67;62.71;100741.43;455480;116;922572;-76
2022/09/20 01:07:37;;;;;;;3.05;2.79;;;;;;;13.68;62.59;100751.33;455501;116;922527;-78
2022/09/20 01:08:43;;;;;;;2.91;2.66;;;;;;;13.67;62.50;100741.43;455489;116;930416;-77
2022/09/20 01:09:47;;;;;;;3.37;3.07;;;;;;;13.66;62.50;100745.27;455378;116;923023;-76
2022/09/20 01:10:51;;;;;;;2.81;2.47;;;;;;;13.67;62.56;100743.36;455498;116;922451;-77
2022/09/20 01:11:57;;;;;;;2.80;2.54;;;;;;;13.66;62.46;100747.16;455472;116;930459;-77
2022/09/20 01:13:00;;;;;;;3.88;2.87;;;;;;;13.65;62.51;100742.75;455325;116;922746;-76
2022/09/20 01:14:03;;;;;;;7.42;2.83;;;;;;;13.64;62.50;100739.17;455566;116;922477;-77
2022/09/20 01:15:08;;;;;;;2.94;2.54;;;;;;;13.65;62.62;100740.84;455479;116;922592;-77
2022/09/20 01:16:16;;;;;;;3.41;2.61;;;;;;;13.67;62.62;100748.84;463230;114;923401;-79
2022/09/20 01:17:22;;;;;;;3.42;3.17;;;;;;;13.69;62.53;100738.47;463350;114;923167;-77
2022/09/20 01:18:27;;;;;;;2.97;2.64;;;;;;;13.69;62.51;100742.05;463365;114;923131;-77
2022/09/20 01:20:01;;;;;;;3.06;2.82;;;;;;;13.70;62.55;100743.73;463413;114;922955;-77
2022/09/20 01:21:06;;;;;;;2.78;2.53;;;;;;;13.71;62.56;100747.30;462684;114;923031;-77
2022/09/20 01:22:15;;;;;;;8.61;3.06;;;;;;;13.72;62.58;100749.82;463374;114;922633;-77
2022/09/20 01:23:39;;;;;;;3.18;2.92;;;;;;;13.72;62.64;100747.08;462352;112;922775;-77
2022/09/20 01:24:49;;;;;;;2.94;2.63;;;;;;;13.74;62.57;100744.09;463430;114;922574;-77
2022/09/20 01:26:26;;;;;;;3.13;2.79;;;;;;;13.74;62.48;100746.83;463517;114;923054;-77
2022/09/20 01:27:44;;;;;;;3.60;2.49;;;;;;;13.74;62.44;100750.41;426162;123;923224;-77
2022/09/20 01:28:51;;;;;;;3.09;2.58;;;;;;;13.74;62.34;100744.92;426095;124;923432;-77
2022/09/20 01:30:07;;;;;;;3.31;2.23;;;;;;;13.73;62.26;100756.95;424708;124;923227;-77
2022/09/20 01:31:26;;;;;;;2.55;2.27;;;;;;;13.81;61.91;100749.48;488032;107;933395;-78
2022/09/20 01:32:33;;;;;;;2.65;2.29;;;;;;;13.66;61.75;100750.75;475312;111;923055;-77
2022/09/20 01:33:42;;;;;;;2.19;1.96;;;;;;;13.60;61.48;100746.19;466014;113;922827;-77
2022/09/20 01:34:48;;;;;;;2.69;1.93;;;;;;;13.56;61.38;100742.21;466911;113;922472;-77
2022/09/20 01:35:53;;;;;;;3.15;2.19;;;;;;;13.52;61.30;100746.48;466735;113;922456;-77
2022/09/20 01:37:00;;;;;;;3.36;2.34;;;;;;;13.47;61.18;100743.60;466772;113;923355;-77
2022/09/20 01:38:07;;;;;;;3.61;2.25;;;;;;;13.45;61.14;100747.66;452955;117;923208;-78
2022/09/20 01:39:25;;;;;;;2.64;1.82;;;;;;;13.42;61.10;100745.36;460888;113;922993;-77
2022/09/20 01:40:41;;;;;;;2.38;1.92;;;;;;;13.38;60.91;100750.47;466837;113;923151;-77
2022/09/20 01:42:00;;;;;;;2.93;1.66;;;;;;;13.44;60.94;100743.23;488098;107;933960;-77
2022/09/20 01:43:19;;;;;;;2.11;1.82;;;;;;;13.31;60.96;100755.17;478250;110;923293;-77
2022/09/20 01:44:25;;;;;;;2.53;2.26;;;;;;;13.30;61.24;100748.86;481197;110;922526;-77
2022/09/20 01:45:31;;;;;;;3.16;2.49;;;;;;;13.31;61.40;100757.91;481876;110;923161;-77
2022/09/20 01:46:36;;;;;;;2.20;2.03;;;;;;;13.32;61.59;100749.48;481970;110;922807;-77
2022/09/20 01:48:09;;;;;;;3.55;1.83;;;;;;;13.35;61.56;100748.17;481978;110;922449;-76
2022/09/20 01:49:16;;;;;;;2.11;1.86;;;;;;;13.36;61.51;100753.42;481792;110;923027;-77
2022/09/20 01:50:38;;;;;;;2.23;2.05;;;;;;;13.38;61.37;100744.98;481862;110;923425;-77
2022/09/20 01:52:01;;;;;;;4.86;2.03;;;;;;;13.38;61.32;100744.98;480622;110;923165;-77
2022/09/20 01:53:27;;;;;;;1.97;1.79;;;;;;;13.37;61.27;100737.83;454066;116;923318;-76
2022/09/20 01:54:56;;;;;;;2.01;1.83;;;;;;;13.37;61.24;100732.35;477754;110;922980;-76
2022/09/20 01:56:04;;;;;;;2.19;1.98;;;;;;;13.35;61.28;100735.31;473220;111;923020;-77
2022/09/20 01:57:20;;;;;;;2.02;1.71;;;;;;;13.36;61.43;100736.16;458173;115;923270;-77
2022/09/20 01:58:45;;;;;;;2.82;1.71;;;;;;;13.36;61.34;100749.84;469692;111;922837;-77
2022/09/20 02:00:12;;;;;;;1.95;1.69;;;;;;;13.34;61.19;100743.78;472676;111;922423;-77
2022/09/20 02:01:38;;;;;;;1.97;1.76;;;;;;;13.31;61.22;100752.44;473308;112;922551;-77
2022/09/20 02:03:00;;;;;;;2.10;1.92;;;;;;;13.29;61.19;100749.08;473334;112;923005;-76
2022/09/20 02:04:12;;;;;;;2.05;1.91;;;;;;;13.25;61.20;100748.70;473333;112;922540;-77
2022/09/20 02:05:31;;;;;;;1.82;1.72;;;;;;;13.22;61.23;100748.34;473352;112;922653;-77
2022/09/20 02:07:00;;;;;;;1.68;1.58;;;;;;;13.18;61.24;100745.20;473330;112;922490;-77
2022/09/20 02:08:29;;;;;;;2.45;1.73;;;;;;;13.15;61.22;100747.56;473256;112;923101;-77
2022/09/20 02:09:44;;;;;;;1.99;1.78;;;;;;;13.09;61.25;100746.55;473288;112;922964;-77
2022/09/20 02:11:10;;;;;;;3.13;1.83;;;;;;;13.04;61.28;100759.23;473287;112;923269;-77
2022/09/20 02:12:32;;;;;;;1.88;1.74;;;;;;;13.01;61.34;100748.76;473295;112;923478;-77
2022/09/20 02:13:51;;;;;;;1.65;1.51;;;;;;;12.97;61.43;100753.83;473255;112;922960;-77
2022/09/20 02:14:58;;;;;;;2.79;1.67;;;;;;;12.94;61.45;100748.81;472408;111;922632;-77
2022/09/20 02:16:20;;;;;;;1.87;1.71;;;;;;;12.93;61.59;100755.34;473301;111;922885;-77
2022/09/20 02:17:35;;;;;;;2.41;1.80;;;;;;;12.93;61.86;100755.34;472995;112;923014;-79
2022/09/20 02:19:15;;;;;;;1.72;1.62;;;;;;;12.94;61.95;100746.92;473303;112;923052;-80
2022/09/20 02:20:32;;;;;;;1.72;1.62;;;;;;;12.98;62.08;100746.45;473360;112;922885;-78
2022/09/20 02:21:47;;;;;;;2.46;1.84;;;;;;;13.01;62.23;100741.35;473248;112;922629;-78
2022/09/20 02:23:06;;;;;;;1.73;1.63;;;;;;;13.04;62.24;100745.55;472679;112;922921;-78
2022/09/20 02:24:18;;;;;;;1.52;1.38;;;;;;;13.07;62.32;100743.19;473363;112;922993;-77
2022/09/20 02:25:35;;;;;;;2.42;1.29;;;;;;;13.11;62.29;100738.11;473355;112;923230;-77
2022/09/20 02:27:01;;;;;;;1.62;1.42;;;;;;;13.15;62.24;100739.36;472962;112;923235;-77
2022/09/20 02:28:22;;;;;;;2.53;1.94;;;;;;;13.18;62.15;100742.47;473309;112;922917;-77
2022/09/20 02:29:50;;;;;;;2.02;1.43;;;;;;;13.22;61.99;100740.12;473290;112;923067;-77
2022/09/20 02:31:00;;;;;;;3.13;1.81;;;;;;;13.22;61.91;100737.39;473316;112;922556;-77
2022/09/20 02:32:23;;;;;;;1.93;1.77;;;;;;;13.20;61.83;100739.50;473334;112;922570;-78
2022/09/20 02:33:42;;;;;;;2.21;1.59;;;;;;;13.19;61.88;100735.93;476990;110;922922;-78
2022/09/20 02:35:06;;;;;;;2.28;1.72;;;;;;;13.21;61.90;100738.45;473260;112;922615;-78
2022/09/20 02:36:16;;;;;;;1.83;1.73;;;;;;;13.21;62.05;100733.81;458905;115;922808;-78
2022/09/20 02:37:35;;;;;;;1.99;1.64;;;;;;;13.24;61.96;100724.28;469414;112;922494;-80
2022/09/20 02:39:00;;;;;;;1.64;1.49;;;;;;;13.25;62.02;100732.28;472297;112;922472;-77
2022/09/20 02:40:25;;;;;;;2.57;1.94;;;;;;;13.27;62.07;100732.06;473289;112;922553;-77
2022/09/20 02:42:04;;;;;;;2.43;2.00;;;;;;;13.29;62.13;100729.91;471869;112;922879;-78
2022/09/20 02:43:19;;;;;;;2.03;1.45;;;;;;;13.30;62.05;100734.33;473080;112;922472;-78
2022/09/20 02:44:49;;;;;;;1.73;1.46;;;;;;;13.43;61.98;100727.86;487913;107;934866;-77
2022/09/20 02:46:22;;;;;;;1.69;1.38;;;;;;;13.32;61.98;100737.69;475443;111;922502;-77
2022/09/20 02:47:37;;;;;;;3.25;1.83;;;;;;;13.33;61.89;100731.15;475307;111;922503;-77
2022/09/20 02:49:02;;;;;;;1.81;1.54;;;;;;;13.33;61.89;100726.52;474423;111;922717;-77
2022/09/20 02:50:27;;;;;;;2.28;2.04;;;;;;;13.34;61.82;100727.35;474347;111;922799;-77
2022/09/20 02:51:42;;;;;;;2.30;1.89;;;;;;;13.32;61.63;100729.47;474009;111;922518;-78
2022/09/20 02:53:22;;;;;;;2.24;1.95;;;;;;;13.29;61.61;100741.70;474313;111;922494;-77
2022/09/20 02:54:45;;;;;;;2.97;1.80;;;;;;;13.26;61.62;100744.08;473839;111;922536;-78
2022/09/20 02:56:07;;;;;;;2.26;2.02;;;;;;;13.22;61.78;100740.12;474241;111;930378;-78
2022/09/20 02:57:20;;;;;;;2.47;2.08;;;;;;;13.16;61.70;100735.56;474350;111;923151;-77
2022/09/20 02:58:42;;;;;;;3.31;2.23;;;;;;;13.11;61.86;100728.00;473880;111;922520;-77
2022/09/20 02:59:48;;;;;;;2.26;2.00;;;;;;;13.09;62.01;100730.12;474351;111;922488;-77
2022/09/20 03:00:55;;;;;;;2.23;1.91;;;;;;;13.09;62.18;100734.75;474305;111;922502;-77
2022/09/20 03:02:20;;;;;;;2.18;1.86;;;;;;;13.09;62.28;100732.86;473878;111;922866;-77
2022/09/20 03:03:43;;;;;;;1.98;1.88;;;;;;;13.09;62.30;100737.49;474358;111;923132;-77
2022/09/20 03:05:19;;;;;;;2.39;2.09;;;;;;;13.08;62.27;100735.81;473934;111;923072;-77
2022/09/20 03:06:30;;;;;;;2.18;1.91;;;;;;;13.06;62.17;100732.48;474269;111;922448;-77
2022/09/20 03:07:42;;;;;;;2.32;1.76;;;;;;;13.03;62.34;100738.39;473098;111;923060;-79
2022/09/20 03:08:51;;;;;;;3.48;2.04;;;;;;;13.02;62.43;100739.45;473887;111;922452;-77
2022/09/20 03:10:10;;;;;;;1.74;1.63;;;;;;;13.01;62.50;100740.55;474014;111;922940;-76
2022/09/20 03:11:50;;;;;;;2.08;1.79;;;;;;;13.00;62.47;100736.13;474039;111;922865;-76
2022/09/20 03:13:14;;;;;;;1.86;1.67;;;;;;;12.96;62.48;100739.30;474308;111;922729;-76
2022/09/20 03:14:24;;;;;;;3.86;1.68;;;;;;;12.92;62.57;100740.83;474238;111;923068;-77
2022/09/20 03:16:06;;;;;;;1.84;1.63;;;;;;;12.89;62.64;100735.82;472600;111;922932;-75
2022/09/20 03:17:24;;;;;;;2.88;1.71;;;;;;;12.88;62.69;100738.77;465705;113;922509;-76
2022/09/20 03:18:43;;;;;;;2.68;1.71;;;;;;;12.84;62.80;100734.83;465868;114;922531;-76
2022/09/20 03:20:08;;;;;;;2.38;1.74;;;;;;;12.83;62.94;100749.56;457548;116;922795;-77
2022/09/20 03:21:32;;;;;;;2.39;1.48;;;;;;;12.82;62.96;100742.41;465121;114;922540;-77
2022/09/20 03:22:54;;;;;;;1.94;1.64;;;;;;;12.81;63.15;100737.99;465884;114;923246;-76
2022/09/20 03:24:13;;;;;;;2.25;1.60;;;;;;;12.82;63.37;100745.98;465625;114;922654;-77
2022/09/20 03:25:25;;;;;;;1.73;1.39;;;;;;;12.85;63.56;100745.52;465179;114;922880;-77
2022/09/20 03:26:41;;;;;;;3.01;1.79;;;;;;;12.90;63.68;100753.08;465920;114;922668;-76
2022/09/20 03:28:11;;;;;;;2.50;1.67;;;;;;;12.92;63.71;100743.56;465152;114;922616;-75
2022/09/20 03:29:35;;;;;;;2.08;1.70;;;;;;;12.97;63.69;100748.35;465855;112;922823;-77
2022/09/20 03:30:54;;;;;;;3.09;1.81;;;;;;;12.99;63.66;100746.23;474246;111;930391;-76
2022/09/20 03:32:17;;;;;;;2.82;2.24;;;;;;;13.00;63.59;100747.08;474373;111;922559;-77
2022/09/20 03:33:40;;;;;;;2.57;1.87;;;;;;;13.00;63.64;100733.39;473039;111;923208;-77
2022/09/20 03:35:05;;;;;;;2.22;1.73;;;;;;;13.00;63.66;100730.66;465912;114;922792;-76
2022/09/20 03:36:33;;;;;;;2.29;2.07;;;;;;;13.02;63.83;100728.51;463288;114;922499;-77
2022/09/20 03:38:08;;;;;;;1.87;1.65;;;;;;;13.05;64.02;100728.07;464841;114;922412;-77
2022/09/20 03:39:24;;;;;;;3.38;1.81;;;;;;;13.10;64.12;100725.48;465896;114;922920;-76
2022/09/20 03:40:46;;;;;;;3.21;2.17;;;;;;;13.17;64.10;100720.81;465888;114;922909;-79
2022/09/20 03:42:26;;;;;;;2.82;1.90;;;;;;;13.21;64.08;100725.59;456146;114;922907;-77
2022/09/20 03:43:51;;;;;;;2.63;2.14;;;;;;;13.26;63.98;100727.64;465883;114;922470;-77
2022/09/20 03:45:14;;;;;;;2.66;1.84;;;;;;;13.30;63.85;100724.22;465934;114;922974;-77
2022/09/20 03:46:20;;;;;;;2.54;1.80;;;;;;;13.34;63.86;100721.87;465959;114;922597;-79
2022/09/20 03:48:02;;;;;;;2.44;2.07;;;;;;;13.37;63.66;100726.88;465967;114;922530;-79
2022/09/20 03:49:26;;;;;;;6.08;1.96;;;;;;;13.40;63.60;100715.45;465869;114;922463;-77
2022/09/20 03:50:52;;;;;;;3.44;2.02;;;;;;;13.43;63.51;100717.74;440622;120;923247;-77
2022/09/20 03:52:05;;;;;;;2.15;1.85;;;;;;;13.46;63.41;100722.75;453851;116;922525;-77
2022/09/20 03:53:26;;;;;;;2.94;1.81;;;;;;;13.48;63.35;100728.84;438209;121;922809;-77
2022/09/20 03:54:49;;;;;;;2.89;2.26;;;;;;;13.51;63.33;100725.63;466464;111;922601;-78
2022/09/20 03:56:07;;;;;;;3.18;2.02;;;;;;;13.54;63.28;100725.19;474163;111;922616;-79
2022/09/20 03:57:16;;;;;;;2.24;1.80;;;;;;;13.57;63.28;100721.97;474151;112;922894;-77
2022/09/20 03:58:26;;;;;;;2.74;1.71;;;;;;;13.60;63.20;100724.27;473382;112;923079;-77
2022/09/20 03:59:36;;;;;;;3.19;2.08;;;;;;;13.61;63.17;100723.20;472960;112;922521;-76
2022/09/20 04:00:54;;;;;;;3.18;1.88;;;;;;;13.65;63.17;100727.14;474159;112;923004;-78
2022/09/20 04:02:18;;;;;;;2.88;2.00;;;;;;;13.79;63.09;100722.30;482304;110;947148;-75
2022/09/20 04:03:44;;;;;;;2.62;2.24;;;;;;;13.69;62.97;100731.09;466704;112;923034;-77
2022/09/20 04:04:51;;;;;;;2.33;2.13;;;;;;;13.73;62.90;100732.29;464528;114;922553;-77
2022/09/20 04:06:17;;;;;;;4.69;2.11;;;;;;;13.75;62.75;100735.64;465310;114;923140;-77
2022/09/20 04:07:42;;;;;;;2.76;2.31;;;;;;;13.76;62.60;100742.80;465296;114;922630;-77
2022/09/20 04:09:05;;;;;;;2.23;1.99;;;;;;;13.79;62.58;100738.75;464999;114;922584;-78
2022/09/20 04:10:31;;;;;;;3.16;1.99;;;;;;;13.80;62.56;100743.16;465369;114;922529;-77
2022/09/20 04:11:50;;;;;;;3.27;2.30;;;;;;;13.84;62.47;100749.04;465319;114;923100;-77
2022/09/20 04:13:32;;;;;;;3.22;1.95;;;;;;;13.85;62.41;100748.78;465156;113;922800;-76
2022/09/20 04:14:41;;;;;;;4.72;1.77;;;;;;;13.86;62.41;100744.98;465302;114;922505;-77
2022/09/20 04:16:03;;;;;;;2.96;1.88;;;;;;;13.88;62.33;100750.23;461208;114;923737;-78
2022/09/20 04:17:18;;;;;;;2.51;1.81;;;;;;;13.90;62.25;100748.08;457156;116;922643;-76
2022/09/20 04:18:34;;;;;;;1.91;1.78;;;;;;;13.91;62.21;100749.76;457076;116;922644;-75
2022/09/20 04:19:55;;;;;;;2.23;1.97;;;;;;;13.93;62.05;100750.38;457202;114;922586;-76
2022/09/20 04:21:21;;;;;;;2.46;1.86;;;;;;;13.97;61.99;100754.31;457081;116;922578;-77
2022/09/20 04:22:25;;;;;;;3.27;2.02;;;;;;;13.99;61.84;100749.45;457035;116;923173;-76
2022/09/20 04:23:44;;;;;;;3.73;2.06;;;;;;;14.00;61.82;100749.19;457071;116;922767;-76
2022/09/20 04:24:53;;;;;;;3.80;1.94;;;;;;;14.02;61.82;100752.55;457133;116;922970;-77
2022/09/20 04:26:00;;;;;;;4.30;1.76;;;;;;;14.05;61.66;100754.00;460926;114;922922;-77
2022/09/20 04:27:06;;;;;;;3.82;1.76;;;;;;;14.06;61.61;100748.27;465212;114;922558;-77
2022/09/20 04:28:28;;;;;;;3.02;2.09;;;;;;;14.09;61.66;100749.71;464811;113;923097;-77
2022/09/20 04:29:52;;;;;;;1.73;1.57;;;;;;;14.11;61.55;100742.91;464770;114;922542;-79
2022/09/20 04:30:59;;;;;;;2.15;1.68;;;;;;;14.13;61.54;100746.27;449643;116;922547;-77
2022/09/20 04:32:30;;;;;;;3.44;2.02;;;;;;;14.15;61.37;100746.88;464852;114;922625;-77
2022/09/20 04:33:36;;;;;;;3.42;1.62;;;;;;;14.16;61.33;100747.72;464922;114;923077;-77
2022/09/20 04:36:30;;;;;;;2.28;2.07;;;;;;;14.19;61.36;100742.59;465248;112;922929;-77
2022/09/20 04:37:37;;;;;;;2.39;1.94;;;;;;;14.21;61.20;100734.13;455583;116;922532;-78
2022/09/20 04:38:40;;;;;;;2.99;1.59;;;;;;;14.21;61.22;100742.36;456535;114;922762;-77
2022/09/20 04:40:07;;;;;;;2.41;1.87;;;;;;;14.24;61.23;100744.63;465469;114;922826;-77
2022/09/20 04:41:39;;;;;;;3.13;1.99;;;;;;;14.26;61.20;100737.00;465296;114;930319;-77
2022/09/20 04:43:18;;;;;;;3.16;1.84;;;;;;;14.29;61.22;100736.52;465339;113;922942;-77
2022/09/20 04:44:46;;;;;;;3.23;1.76;;;;;;;14.31;61.15;100737.13;465413;114;922962;-77
2022/09/20 04:46:15;;;;;;;5.18;1.87;;;;;;;14.33;61.08;100726.77;462267;114;923077;-76
2022/09/20 04:47:46;;;;;;;3.31;2.27;;;;;;;14.36;61.09;100730.94;455623;116;923135;-76
2022/09/20 04:48:55;;;;;;;4.43;2.17;;;;;;;14.38;61.11;100726.93;460087;114;922520;-76
2022/09/20 04:50:34;;;;;;;1.98;1.82;;;;;;;14.42;61.07;100730.03;459133;114;923038;-76
2022/09/20 04:52:02;;;;;;;6.26;2.16;;;;;;;14.45;61.05;100737.77;464893;114;922958;-77
2022/09/20 04:53:17;;;;;;;2.44;2.19;;;;;;;14.49;60.94;100736.25;440524;120;923142;-76
2022/09/20 04:54:43;;;;;;;4.41;2.14;;;;;;;14.51;60.90;100745.89;440571;120;922916;-77
2022/09/20 04:55:59;;;;;;;2.86;1.92;;;;;;;14.54;60.84;100739.95;465381;114;922494;-77
2022/09/20 04:57:17;;;;;;;2.92;1.82;;;;;;;14.56;60.64;100743.27;465355;114;922618;-76
2022/09/20 04:58:35;;;;;;;3.47;2.16;;;;;;;14.58;60.51;100741.14;465324;113;922540;-76
2022/09/20 05:00:03;;;;;;;5.56;2.33;;;;;;;14.58;60.44;100735.66;465366;114;923095;-77
2022/09/20 05:01:34;;;;;;;7.89;2.24;;;;;;;14.59;60.43;100740.08;465292;114;922491;-76
2022/09/20 05:02:43;;;;;;;5.29;2.11;;;;;;;14.61;60.39;100739.81;465316;113;922589;-76
2022/09/20 05:04:16;;;;;;;5.79;1.99;;;;;;;14.63;60.37;100742.33;465338;114;923177;-76
2022/09/20 05:05:30;;;;;;;2.43;1.98;;;;;;;14.65;60.40;100742.94;465345;114;923502;-76
2022/09/20 05:07:00;;;;;;;4.07;2.07;;;;;;;14.67;60.50;100751.75;465189;114;922935;-77
2022/09/20 05:08:26;;;;;;;2.78;2.29;;;;;;;14.69;60.40;100747.70;465322;113;923472;-78
2022/09/20 05:09:53;;;;;;;4.87;2.16;;;;;;;14.72;60.34;100738.18;465351;114;922901;-77
2022/09/20 05:11:22;;;;;;;4.72;2.18;;;;;;;14.73;60.17;100742.57;463985;114;923103;-74
2022/09/20 05:12:33;;;;;;;4.63;2.17;;;;;;;14.74;60.08;100736.02;465314;114;922631;-76
2022/09/20 05:13:57;;;;;;;2.85;2.33;;;;;;;14.76;60.04;100734.72;463702;114;922555;-76
2022/09/20 05:15:29;;;;;;;4.90;2.74;;;;;;;14.78;60.00;100731.70;449047;118;922666;-76
2022/09/20 05:16:59;;;;;;;2.85;1.92;;;;;;;14.81;60.04;100729.34;456597;116;922557;-78
2022/09/20 05:18:21;;;;;;;3.27;2.10;;;;;;;14.84;60.08;100730.76;457194;115;923246;-76
2022/09/20 05:19:44;;;;;;;4.19;2.38;;;;;;;14.87;60.02;100728.39;457210;116;923177;-77
2022/09/20 05:21:06;;;;;;;3.36;2.53;;;;;;;14.91;60.06;100728.73;457216;116;923095;-76
2022/09/20 05:22:21;;;;;;;5.35;2.74;;;;;;;14.95;59.96;100721.67;462322;112;922535;-77
2022/09/20 05:23:46;;;;;;;3.19;2.41;;;;;;;14.98;59.89;100722.05;470051;112;922539;-76
2022/09/20 05:25:09;;;;;;;3.39;2.53;;;;;;;15.02;59.79;100719.65;468521;112;922829;-77
2022/09/20 05:26:22;;;;;;;3.70;2.99;;;;;;;15.06;59.70;100714.50;470220;112;923161;-76
2022/09/20 05:27:44;;;;;;;4.42;2.64;;;;;;;15.09;59.67;100716.78;469894;112;923005;-76
2022/09/20 05:29:09;;;;;;;4.09;2.28;;;;;;;15.14;59.65;100725.97;469884;112;922545;-76
2022/09/20 05:30:21;;;;;;;2.92;2.26;;;;;;;15.17;59.61;100722.73;464028;112;923116;-77
2022/09/20 05:31:47;;;;;;;3.68;2.67;;;;;;;15.21;59.57;100723.09;463116;114;923097;-76
2022/09/20 05:33:25;;;;;;;4.22;2.76;;;;;;;15.24;59.51;100719.86;442418;119;923215;-77
2022/09/20 05:34:35;;;;;;;3.71;2.39;;;;;;;15.27;59.49;100722.13;461025;112;922527;-76
2022/09/20 05:36:02;;;;;;;4.32;3.19;;;;;;;15.31;59.57;100732.39;460734;115;922502;-76
2022/09/20 05:37:25;;;;;;;4.06;2.84;;;;;;;15.32;59.60;100725.83;460973;115;922448;-76
2022/09/20 05:38:49;;;;;;;4.45;2.98;;;;;;;15.38;59.63;100730.32;460026;115;922564;-76
2022/09/20 05:39:56;;;;;;;3.04;2.48;;;;;;;15.43;59.50;100716.72;460902;115;922614;-77
2022/09/20 05:41:16;;;;;;;4.47;2.57;;;;;;;15.49;59.48;100722.31;460246;115;923091;-77
2022/09/20 05:42:38;;;;;;;5.06;3.02;;;;;;;15.53;59.32;100726.27;460927;115;923062;-77
2022/09/20 05:43:44;;;;;;;3.74;2.51;;;;;;;15.56;59.26;100721.11;461009;115;922521;-77
2022/09/20 05:45:22;;;;;;;3.24;2.67;;;;;;;15.71;59.21;100721.41;482412;110;946780;-75
2022/09/20 05:47:00;;;;;;;7.32;3.22;;;;;;;15.64;59.12;100726.23;473362;112;923342;-77
2022/09/20 05:48:18;;;;;;;3.98;2.83;;;;;;;15.69;58.97;100720.84;473694;112;930688;-76
2022/09/20 05:49:25;;;;;;;5.13;3.16;;;;;;;15.73;58.86;100723.91;473411;112;922564;-77
2022/09/20 05:50:32;;;;;;;3.61;2.54;;;;;;;15.77;58.69;100725.92;468866;112;922618;-76
2022/09/20 05:52:01;;;;;;;5.47;3.43;;;;;;;15.80;58.53;100730.95;472806;112;922622;-75
2022/09/20 05:53:30;;;;;;;4.29;3.17;;;;;;;15.84;58.48;100734.03;473657;112;923318;-76
2022/09/20 05:54:56;;;;;;;5.28;2.87;;;;;;;15.89;58.27;100731.38;469140;112;922537;-76
2022/09/20 05:56:25;;;;;;;4.73;3.24;;;;;;;15.92;58.21;100736.41;465343;114;922655;-76